Time,TemperatureF,DewpointF,PressureIn,WindDirection,WindDirectionDegrees,WindSpeedMPH,WindSpeedGustMPH,Humidity,HourlyPrecipIn,Conditions,Clouds,dailyrainin,SolarRadiationWatts/m^2,SoftwareType,DateUTC
2013-09-25 00:00:00,60.3,57.1,28.51,NNW,340,0.0,0.0,89,0.00,FEW,,0.00,0.0,WeatherDisplay:10.37,2013-09-25 05:00:00,
2013-09-25 02:20:00,56.2,54.5,28.51,NNW,340,0.0,0.0,94,0.00,FEW,,0.00,0.0,WeatherDisplay:10.37,2013-09-25 07:20:00,
2013-09-25 02:30:00,56.1,54.7,28.50,NNW,340,0.0,0.0,95,0.00,FEW,,0.00,0.0,WeatherDisplay:10.37,2013-09-25 07:30:00,
2013-09-25 02:40:00,56.2,55.1,28.50,NNW,340,0.0,0.0,96,0.00,FEW,,0.00,0.0,WeatherDisplay:10.37,2013-09-25 07:40:00,
2013-09-25 02:50:00,56.4,55.3,28.50,NNW,340,0.0,1.0,96,0.00,FEW,,0.00,0.0,WeatherDisplay:10.37,2013-09-25 07:50:00,
2013-09-25 03:00:00,56.6,55.5,28.50,NNW,340,0.0,0.0,96,0.00,FEW,,0.00,0.0,WeatherDisplay:10.37,2013-09-25 08:00:00,
2013-09-25 03:10:00,56.6,55.5,28.50,NNW,340,0.0,0.0,96,0.00,FEW,,0.00,0.0,WeatherDisplay:10.37,2013-09-25 08:10:00,
2013-09-25 03:20:00,56.6,55.5,28.50,NNW,340,0.0,0.0,96,0.00,FEW,,0.00,0.0,WeatherDisplay:10.37,2013-09-25 08:20:00,
2013-09-25 03:30:00,56.5,55.4,28.50,NNW,340,0.0,0.0,96,0.00,FEW,,0.00,0.0,WeatherDisplay:10.37,2013-09-25 08:30:00,
2013-09-25 03:40:00,56.3,55.2,28.50,NNW,340,0.0,0.0,96,0.00,FEW,,0.00,0.0,WeatherDisplay:10.37,2013-09-25 08:40:00,
2013-09-25 03:50:00,55.9,54.5,28.51,NNW,340,0.0,0.0,95,0.00,FEW,,0.00,0.0,WeatherDisplay:10.37,2013-09-25 08:50:00,
2013-09-25 04:00:00,55.6,54.2,28.50,NNW,340,0.0,0.0,95,0.00,FEW,,0.00,0.0,WeatherDisplay:10.37,2013-09-25 09:00:00,
2013-09-25 04:10:00,55.4,54.3,28.50,NNW,340,0.0,0.0,96,0.00,FEW,,0.00,0.0,WeatherDisplay:10.37,2013-09-25 09:10:00,
2013-09-25 04:20:00,55.3,54.2,28.50,NNW,340,0.0,0.0,96,0.00,FEW,,0.00,0.0,WeatherDisplay:10.37,2013-09-25 09:20:00,
2013-09-25 04:30:00,55.0,53.9,28.51,NNW,340,0.0,0.0,96,0.00,FEW,,0.00,0.0,WeatherDisplay:10.37,2013-09-25 09:30:00,
2013-09-25 04:40:00,54.9,53.8,28.51,NNW,340,0.0,0.0,96,0.00,FEW,,0.00,0.0,WeatherDisplay:10.37,2013-09-25 09:40:00,
2013-09-25 04:50:00,54.6,53.5,28.51,NNW,340,0.0,0.0,96,0.00,FEW,,0.00,0.0,WeatherDisplay:10.37,2013-09-25 09:50:00,
2013-09-25 05:00:00,54.2,53.1,28.51,NNW,340,0.0,0.0,96,0.00,FEW,,0.00,0.0,WeatherDisplay:10.37,2013-09-25 10:00:00,
2013-09-25 05:10:00,53.9,52.8,28.51,NNW,340,0.0,0.0,96,0.00,FEW,,0.00,0.0,WeatherDisplay:10.37,2013-09-25 10:10:00,
2013-09-25 05:20:00,53.9,52.8,28.52,NNW,340,0.0,0.0,96,0.00,FEW,,0.00,0.0,WeatherDisplay:10.37,2013-09-25 10:20:00,
2013-09-25 05:30:00,53.6,52.5,28.51,NNW,340,0.0,0.0,96,0.00,FEW,,0.00,0.0,WeatherDisplay:10.37,2013-09-25 10:30:00,
2013-09-25 05:40:00,53.3,52.2,28.52,NNW,340,0.0,0.0,96,0.00,FEW,,0.00,0.0,WeatherDisplay:10.37,2013-09-25 10:40:00,
2013-09-25 05:50:00,53.2,52.4,28.52,NNW,340,0.0,0.0,97,0.00,FEW,,0.00,0.0,WeatherDisplay:10.37,2013-09-25 10:50:00,
2013-09-25 06:00:00,53.1,52.3,28.52,NNW,340,0.0,0.0,97,0.00,FEW,,0.00,0.0,WeatherDisplay:10.37,2013-09-25 11:00:00,
2013-09-25 06:10:00,52.9,51.8,28.52,NNW,340,0.0,0.0,96,0.00,FEW,,0.00,0.0,WeatherDisplay:10.37,2013-09-25 11:10:00,
2013-09-25 06:20:00,52.8,51.7,28.53,NNW,340,0.0,0.0,96,0.00,FEW,,0.00,0.0,WeatherDisplay:10.37,2013-09-25 11:20:00,
2013-09-25 06:30:00,52.7,51.9,28.53,NNW,340,0.0,0.0,97,0.00,FEW,,0.00,0.0,WeatherDisplay:10.37,2013-09-25 11:30:00,
2013-09-25 06:40:00,52.6,51.8,28.53,NNW,340,0.0,0.0,97,0.00,FEW,,0.00,0.0,WeatherDisplay:10.37,2013-09-25 11:40:00,
2013-09-25 06:50:00,52.4,51.3,28.53,NNW,340,0.0,0.0,96,0.00,FEW,,0.00,0.0,WeatherDisplay:10.37,2013-09-25 11:50:00,
2013-09-25 07:00:00,52.3,51.5,28.53,NNW,340,0.0,0.0,97,0.00,FEW,,0.00,0.0,WeatherDisplay:10.37,2013-09-25 12:00:00,
2013-09-25 07:10:00,52.1,51.3,28.53,NNW,340,0.0,0.0,97,0.00,FEW,,0.00,0.0,WeatherDisplay:10.37,2013-09-25 12:10:00,
2013-09-25 07:20:00,52.1,51.3,28.54,NNW,340,0.0,0.0,97,0.00,FEW,,0.00,0.0,WeatherDisplay:10.37,2013-09-25 12:20:00,
2013-09-25 07:30:00,52.1,51.3,28.54,NNW,340,0.0,0.0,97,0.00,FEW,,0.00,0.0,WeatherDisplay:10.37,2013-09-25 12:30:00,
2013-09-25 07:40:00,52.6,51.8,28.54,NNW,340,0.0,0.0,97,0.00,FEW,,0.00,0.0,WeatherDisplay:10.37,2013-09-25 12:40:00,
2013-09-25 07:50:00,53.6,53.0,28.54,NNW,340,0.0,0.0,98,0.00,FEW,,0.00,0.0,WeatherDisplay:10.37,2013-09-25 12:50:00,
2013-09-25 08:00:00,54.6,54.1,28.54,NNW,340,0.0,0.0,98,0.00,FEW,,0.00,0.0,WeatherDisplay:10.37,2013-09-25 13:00:00,
2013-09-25 08:10:00,56.2,55.9,28.54,NNW,340,0.0,0.0,99,0.00,FEW,,0.00,0.0,WeatherDisplay:10.37,2013-09-25 13:10:00,
2013-09-25 08:20:00,57.2,57.0,28.54,NNW,340,0.0,2.0,99,0.00,FEW,,0.00,0.0,WeatherDisplay:10.37,2013-09-25 13:20:00,
2013-09-25 08:30:00,57.9,57.6,28.55,NNW,340,0.0,1.0,99,0.00,FEW,,0.00,0.0,WeatherDisplay:10.37,2013-09-25 13:30:00,
2013-09-25 08:40:00,58.7,58.5,28.55,NW,319,0.0,0.0,99,0.00,FEW,,0.00,0.0,WeatherDisplay:10.37,2013-09-25 13:40:00,
2013-09-25 08:50:00,59.7,59.2,28.55,East,94,0.0,0.0,98,0.00,FEW,,0.00,0.0,WeatherDisplay:10.37,2013-09-25 13:50:00,
2013-09-25 09:00:00,60.5,59.7,28.55,East,94,0.0,1.0,97,0.00,FEW,,0.00,0.0,WeatherDisplay:10.37,2013-09-25 14:00:00,
2013-09-25 09:10:00,61.2,59.5,28.55,East,93,1.0,4.0,94,0.00,FEW,,0.00,0.0,WeatherDisplay:10.37,2013-09-25 14:10:00,
2013-09-25 09:20:00,62.0,59.9,28.56,East,93,0.0,2.0,93,0.00,FEW,,0.00,0.0,WeatherDisplay:10.37,2013-09-25 14:20:00,
2013-09-25 09:30:00,63.1,60.7,28.55,East,93,0.0,1.0,92,0.00,FEW,,0.00,0.0,WeatherDisplay:10.37,2013-09-25 14:30:00,
2013-09-25 09:40:00,64.7,61.7,28.56,East,93,0.0,3.0,90,0.00,FEW,,0.00,0.0,WeatherDisplay:10.37,2013-09-25 14:40:00,
2013-09-25 09:50:00,65.8,61.2,28.55,East,92,0.0,4.0,85,0.00,FEW,,0.00,0.0,WeatherDisplay:10.37,2013-09-25 14:50:00,
2013-09-25 10:00:00,65.9,60.9,28.56,East,86,0.0,3.0,84,0.00,FEW,,0.00,0.0,WeatherDisplay:10.37,2013-09-25 15:00:00,
2013-09-25 10:10:00,67.5,61.8,28.56,East,86,0.0,3.0,82,0.00,FEW,,0.00,0.0,WeatherDisplay:10.37,2013-09-25 15:10:00,
2013-09-25 10:20:00,68.3,61.9,28.56,East,86,0.0,1.0,80,0.00,FEW,,0.00,0.0,WeatherDisplay:10.37,2013-09-25 15:20:00,
2013-09-25 10:30:00,69.3,62.2,28.56,East,86,0.0,2.0,78,0.00,FEW,,0.00,0.0,WeatherDisplay:10.37,2013-09-25 15:30:00,
2013-09-25 10:40:00,69.4,61.9,28.56,East,81,1.0,4.0,77,0.00,FEW,,0.00,0.0,WeatherDisplay:10.37,2013-09-25 15:40:00,
2013-09-25 10:50:00,68.9,62.1,28.56,NE,49,0.0,4.0,79,0.00,FEW,,0.00,0.0,WeatherDisplay:10.37,2013-09-25 15:50:00,
2013-09-25 11:00:00,69.6,62.5,28.56,NE,42,2.0,6.0,78,0.00,FEW,,0.00,0.0,WeatherDisplay:10.37,2013-09-25 16:00:00,
2013-09-25 11:10:00,70.7,63.2,28.56,NE,52,0.0,6.0,77,0.00,FEW,,0.00,0.0,WeatherDisplay:10.37,2013-09-25 16:10:00,
2013-09-25 11:20:00,71.6,64.0,28.56,NE,44,1.0,4.0,77,0.00,FEW,,0.00,0.0,WeatherDisplay:10.37,2013-09-25 16:20:00,
2013-09-25 11:30:00,71.6,63.3,28.56,NW,320,1.0,4.0,75,0.00,FEW,,0.00,0.0,WeatherDisplay:10.37,2013-09-25 16:30:00,
2013-09-25 11:40:00,71.6,62.8,28.56,North,357,0.0,5.0,74,0.00,FEW,,0.00,0.0,WeatherDisplay:10.37,2013-09-25 16:40:00,
2013-09-25 11:50:00,71.6,63.3,28.56,NW,317,0.0,6.0,75,0.00,FEW,,0.00,0.0,WeatherDisplay:10.37,2013-09-25 16:50:00,
2013-09-25 12:00:00,72.5,64.1,28.56,North,349,0.0,6.0,75,0.00,FEW,,0.00,0.0,WeatherDisplay:10.37,2013-09-25 17:00:00,
2013-09-25 12:10:00,73.1,62.8,28.56,North,349,1.0,6.0,70,0.00,FEW,,0.00,0.0,WeatherDisplay:10.37,2013-09-25 17:10:00,
2013-09-25 12:20:00,72.7,62.8,28.55,NNE,27,2.0,7.0,71,0.00,FEW,,0.00,0.0,WeatherDisplay:10.37,2013-09-25 17:20:00,
2013-09-25 12:30:00,74.0,64.0,28.55,NNE,20,1.0,5.0,71,0.00,FEW,,0.00,0.0,WeatherDisplay:10.37,2013-09-25 17:30:00,
2013-09-25 12:40:00,75.2,64.3,28.55,NNW,344,1.0,5.0,69,0.00,FEW,,0.00,0.0,WeatherDisplay:10.37,2013-09-25 17:40:00,
2013-09-25 12:50:00,74.7,63.0,28.55,NW,325,1.0,5.0,67,0.00,FEW,,0.00,0.0,WeatherDisplay:10.37,2013-09-25 17:50:00,
2013-09-25 13:00:00,74.8,63.1,28.54,NNW,341,3.0,6.0,67,0.00,FEW,,0.00,0.0,WeatherDisplay:10.37,2013-09-25 18:00:00,
2013-09-25 13:10:00,75.0,63.7,28.54,WNW,282,1.0,6.0,68,0.00,FEW,,0.00,0.0,WeatherDisplay:10.37,2013-09-25 18:10:00,
2013-09-25 13:20:00,74.9,63.2,28.54,WNW,293,0.0,6.0,67,0.00,FEW,,0.00,0.0,WeatherDisplay:10.37,2013-09-25 18:20:00,
2013-09-25 13:30:00,74.9,62.7,28.54,NNE,31,0.0,5.0,66,0.00,FEW,,0.00,0.0,WeatherDisplay:10.37,2013-09-25 18:30:00,
2013-09-25 13:40:00,75.1,62.6,28.53,NE,49,0.0,3.0,65,0.00,FEW,,0.00,0.0,WeatherDisplay:10.37,2013-09-25 18:40:00,
2013-09-25 13:50:00,76.2,63.1,28.53,North,358,2.0,6.0,64,0.00,FEW,,0.00,0.0,WeatherDisplay:10.37,2013-09-25 18:50:00,
2013-09-25 14:00:00,76.1,63.5,28.52,NNE,14,0.0,7.0,65,0.00,FEW,,0.00,0.0,WeatherDisplay:10.37,2013-09-25 19:00:00,
2013-09-25 14:10:00,76.3,63.7,28.52,NNW,338,0.0,5.0,65,0.00,FEW,,0.00,0.0,WeatherDisplay:10.37,2013-09-25 19:10:00,
2013-09-25 14:20:00,76.6,62.6,28.52,NE,43,2.0,6.0,62,0.00,FEW,,0.00,0.0,WeatherDisplay:10.37,2013-09-25 19:20:00,
2013-09-25 14:30:00,75.7,62.2,28.52,NE,46,0.0,1.0,63,0.00,FEW,,0.00,0.0,WeatherDisplay:10.37,2013-09-25 19:30:00,
2013-09-25 14:40:00,75.3,61.9,28.52,NE,46,2.0,4.0,63,0.00,FEW,,0.00,0.0,WeatherDisplay:10.37,2013-09-25 19:40:00,
2013-09-25 14:50:00,76.3,61.4,28.52,NE,46,1.0,3.0,60,0.00,FEW,,0.00,0.0,WeatherDisplay:10.37,2013-09-25 19:50:00,
2013-09-25 15:00:00,77.1,61.6,28.52,NE,46,1.0,4.0,59,0.00,FEW,,0.00,0.0,WeatherDisplay:10.37,2013-09-25 20:00:00,
2013-09-25 15:10:00,77.9,63.4,28.52,NE,46,1.0,6.0,61,0.00,FEW,,0.00,0.0,WeatherDisplay:10.37,2013-09-25 20:10:00,
2013-09-25 15:20:00,76.9,62.0,28.52,NE,49,0.0,1.0,60,0.00,FEW,,0.00,0.0,WeatherDisplay:10.37,2013-09-25 20:20:00,
2013-09-25 15:30:00,76.4,62.4,28.52,NE,49,0.0,4.0,62,0.00,FEW,,0.00,0.0,WeatherDisplay:10.37,2013-09-25 20:30:00,
2013-09-25 15:40:00,77.0,62.6,28.52,NE,50,0.0,6.0,61,0.00,FEW,,0.00,0.0,WeatherDisplay:10.37,2013-09-25 20:40:00,
2013-09-25 15:50:00,76.9,62.9,28.52,NE,52,0.0,5.0,62,0.00,FEW,,0.00,0.0,WeatherDisplay:10.37,2013-09-25 20:50:00,
2013-09-25 16:00:00,76.6,62.6,28.52,NE,53,0.0,2.0,62,0.00,FEW,,0.00,0.0,WeatherDisplay:10.37,2013-09-25 21:00:00,
2013-09-25 16:10:00,76.9,62.9,28.52,NE,54,0.0,4.0,62,0.00,FEW,,0.00,0.0,WeatherDisplay:10.37,2013-09-25 21:10:00,
2013-09-25 16:20:00,77.2,63.1,28.52,NE,54,1.0,3.0,62,0.00,FEW,,0.00,0.0,WeatherDisplay:10.37,2013-09-25 21:20:00,
2013-09-25 16:30:00,77.6,62.6,28.52,NE,54,0.0,4.0,60,0.00,FEW,,0.00,0.0,WeatherDisplay:10.37,2013-09-25 21:30:00,
2013-09-25 16:40:00,77.9,62.9,28.52,East,90,0.0,5.0,60,0.00,FEW,,0.00,0.0,WeatherDisplay:10.37,2013-09-25 21:40:00,
2013-09-25 16:50:00,77.8,62.3,28.51,East,94,0.0,4.0,59,0.00,FEW,,0.00,0.0,WeatherDisplay:10.37,2013-09-25 21:50:00,
2013-09-25 17:00:00,77.8,63.3,28.51,East,94,0.0,3.0,61,0.00,FEW,,0.00,0.0,WeatherDisplay:10.37,2013-09-25 22:00:00,
2013-09-25 17:10:00,78.5,63.5,28.51,East,93,0.0,3.0,60,0.00,FEW,,0.00,0.0,WeatherDisplay:10.37,2013-09-25 22:10:00,
2013-09-25 17:20:00,78.4,62.4,28.51,East,93,0.0,4.0,58,0.00,FEW,,0.00,0.0,WeatherDisplay:10.37,2013-09-25 22:20:00,
2013-09-25 17:30:00,77.8,61.8,28.52,East,95,0.0,6.0,58,0.00,FEW,,0.00,0.0,WeatherDisplay:10.37,2013-09-25 22:30:00,
2013-09-25 17:40:00,77.4,62.4,28.52,East,96,0.0,3.0,60,0.00,FEW,,0.00,0.0,WeatherDisplay:10.37,2013-09-25 22:40:00,
2013-09-25 17:50:00,77.1,62.6,28.52,SE,133,0.0,6.0,61,0.00,FEW,,0.00,0.0,WeatherDisplay:10.37,2013-09-25 22:50:00,
2013-09-25 18:00:00,76.7,61.8,28.52,SE,133,0.0,4.0,60,0.00,FEW,,0.00,0.0,WeatherDisplay:10.37,2013-09-25 23:00:00,
2013-09-25 18:10:00,75.9,61.5,28.52,SE,133,0.0,3.0,61,0.00,FEW,,0.00,0.0,WeatherDisplay:10.37,2013-09-25 23:10:00,
2013-09-25 18:20:00,75.3,61.8,28.52,SE,133,0.0,1.0,63,0.00,FEW,,0.00,0.0,WeatherDisplay:10.37,2013-09-25 23:20:00,
2013-09-25 18:30:00,74.7,61.7,28.52,SE,133,0.0,1.0,64,0.00,FEW,,0.00,0.0,WeatherDisplay:10.37,2013-09-25 23:30:00,
2013-09-25 18:40:00,74.2,61.7,28.52,SE,133,0.0,0.0,65,0.00,FEW,,0.00,0.0,WeatherDisplay:10.37,2013-09-25 23:40:00,
2013-09-25 18:50:00,73.6,62.4,28.52,SE,133,0.0,0.0,68,0.00,FEW,,0.00,0.0,WeatherDisplay:10.37,2013-09-25 23:50:00,
2013-09-25 19:00:00,72.8,63.2,28.52,SE,133,0.0,0.0,72,0.00,FEW,,0.00,0.0,WeatherDisplay:10.37,2013-09-26 00:00:00,
2013-09-25 19:10:00,71.6,62.5,28.52,SE,133,0.0,0.0,73,0.00,FEW,,0.00,0.0,WeatherDisplay:10.37,2013-09-26 00:10:00,
2013-09-25 19:20:00,70.3,61.6,28.52,SE,133,0.0,0.0,74,0.00,FEW,,0.00,0.0,WeatherDisplay:10.37,2013-09-26 00:20:00,
2013-09-25 19:30:00,69.7,61.4,28.52,SE,133,0.0,1.0,75,0.00,FEW,,0.00,0.0,WeatherDisplay:10.37,2013-09-26 00:30:00,
2013-09-25 19:40:00,69.2,61.7,28.52,SE,133,0.0,0.0,77,0.00,FEW,,0.00,0.0,WeatherDisplay:10.37,2013-09-26 00:40:00,
2013-09-25 19:50:00,68.6,61.4,28.52,SE,133,0.0,0.0,78,0.00,FEW,,0.00,0.0,WeatherDisplay:10.37,2013-09-26 00:50:00,
2013-09-25 20:00:00,67.9,61.5,28.52,SE,133,0.0,0.0,80,0.00,FEW,,0.00,0.0,WeatherDisplay:10.37,2013-09-26 01:00:00,
2013-09-25 20:10:00,67.5,61.4,28.53,SE,133,0.0,0.0,81,0.00,FEW,,0.00,0.0,WeatherDisplay:10.37,2013-09-26 01:10:00,
2013-09-25 20:20:00,67.2,61.2,28.53,SE,133,0.0,1.0,81,0.00,FEW,,0.00,0.0,WeatherDisplay:10.37,2013-09-26 01:20:00,
2013-09-25 20:30:00,67.1,61.1,28.53,SE,133,0.0,0.0,81,0.00,FEW,,0.00,0.0,WeatherDisplay:10.37,2013-09-26 01:30:00,
2013-09-25 20:40:00,67.0,61.0,28.53,SE,133,0.0,1.0,81,0.00,FEW,,0.00,0.0,WeatherDisplay:10.37,2013-09-26 01:40:00,
2013-09-25 20:50:00,66.9,60.9,28.53,SE,133,0.0,0.0,81,0.00,FEW,,0.00,0.0,WeatherDisplay:10.37,2013-09-26 01:50:00,
2013-09-25 21:00:00,66.5,60.9,28.53,SE,133,0.0,0.0,82,0.00,FEW,,0.00,0.0,WeatherDisplay:10.37,2013-09-26 02:00:00,
2013-09-25 21:10:00,65.9,60.6,28.54,SE,133,0.0,0.0,83,0.00,FEW,,0.00,0.0,WeatherDisplay:10.37,2013-09-26 02:10:00,
2013-09-25 21:20:00,65.0,60.1,28.54,SE,133,0.0,0.0,84,0.00,FEW,,0.00,0.0,WeatherDisplay:10.37,2013-09-26 02:20:00,
2013-09-25 21:30:00,64.4,60.1,28.54,SE,133,0.0,0.0,86,0.00,FEW,,0.00,0.0,WeatherDisplay:10.37,2013-09-26 02:30:00,
2013-09-25 21:40:00,63.9,60.0,28.54,SE,133,0.0,0.0,87,0.00,FEW,,0.00,0.0,WeatherDisplay:10.37,2013-09-26 02:40:00,
2013-09-25 21:50:00,63.6,59.9,28.54,SE,133,0.0,0.0,88,0.00,FEW,,0.00,0.0,WeatherDisplay:10.37,2013-09-26 02:50:00,
2013-09-25 22:00:00,63.3,60.0,28.54,SE,133,0.0,0.0,89,0.00,FEW,,0.00,0.0,WeatherDisplay:10.37,2013-09-26 03:00:00,
2013-09-25 22:10:00,62.8,59.5,28.54,SE,133,0.0,0.0,89,0.00,FEW,,0.00,0.0,WeatherDisplay:10.37,2013-09-26 03:10:00,
2013-09-25 22:20:00,62.3,59.3,28.55,SE,133,0.0,0.0,90,0.00,FEW,,0.00,0.0,WeatherDisplay:10.37,2013-09-26 03:20:00,
2013-09-25 22:30:00,61.9,59.2,28.54,SE,133,0.0,0.0,91,0.00,FEW,,0.00,0.0,WeatherDisplay:10.37,2013-09-26 03:30:00,
2013-09-25 22:40:00,61.7,59.4,28.55,SE,133,0.0,0.0,92,0.00,FEW,,0.00,0.0,WeatherDisplay:10.37,2013-09-26 03:40:00,
2013-09-25 22:50:00,61.6,59.6,28.55,SE,133,0.0,0.0,93,0.00,FEW,,0.00,0.0,WeatherDisplay:10.37,2013-09-26 03:50:00,
2013-09-25 23:00:00,61.7,59.7,28.55,SE,133,0.0,0.0,93,0.00,FEW,,0.00,0.0,WeatherDisplay:10.37,2013-09-26 04:00:00,
2013-09-25 23:10:00,61.5,59.1,28.55,SE,133,0.0,0.0,92,0.00,FEW,,0.00,0.0,WeatherDisplay:10.37,2013-09-26 04:10:00,
2013-09-25 23:20:00,61.4,59.4,28.55,SE,133,0.0,0.0,93,0.00,FEW,,0.00,0.0,WeatherDisplay:10.37,2013-09-26 04:20:00,
2013-09-25 23:30:00,61.2,59.2,28.55,SE,133,0.0,0.0,93,0.00,FEW,,0.00,0.0,WeatherDisplay:10.37,2013-09-26 04:30:00,
2013-09-25 23:40:00,61.1,59.1,28.55,SE,133,0.0,1.0,93,0.00,FEW,,0.00,0.0,WeatherDisplay:10.37,2013-09-26 04:40:00,
2013-09-25 23:50:00,61.0,59.3,28.55,SE,133,0.0,0.0,94,0.00,FEW,,0.00,0.0,WeatherDisplay:10.37,2013-09-26 04:50:00,